Туризм
Свали.ру
Погода в мире
ИА "Метеоновости"
Информеры
для сайтов
Туры
поиск и заказ
Авиабилеты
регулярные и чартерные рейсы
 
    На главную   Табло рисков задержки   Авиабилеты   Расписание авиарейсов

Padre Aldamiz International Airport    ICAO или ID: SPTU, IATA: PEM
Небольшой аэропорт, регулярные рейсы
добавить в избранное


широта:
долгота:
высота над уровнем моря:
-12°37'
-69°14'

201 м
Страна: Перу (Peru)
погода
климат
описание
туры
отели
аэропорты
Риск задержки рейсов из-за погоды
Факт:  
Прогноз:  
 Карта
 



Текущее время 10:12 UTC 20-04-2024
Солнце: восход 10:43, заход 22:28, долгота дня 11:45

  12:00 (на 24ч) [18:00 (на 24ч)]

Прогноз погоды на 24 ч. с 18:00 19-04-2024 по 18:00 20-04-2024 UTC


Исходная телеграмма в коде TAF
SPTU 191700Z 1918/2018 15005KT 9999 SCT040 SCT110 TX33/1919Z TN23/2011Z
TEMPO 2010/2013 4000 BR BKN012 BKN100

Раскодировка телеграмм производится в автоматическом режиме, в телеграммах могут содержаться ошибки, приводящие к их неправильной интерпретации.

Предупреждение: данные на этом сайте не могут быть использованы для планирования полётов и предоставляются только в информационных целях.
Найти аэропорт
По названию или городу
только регулярные рейсы

Избранные аэропорты
Список пуст



© 2008 Данио-Пресс. Все права защищены.
Использование материалов сайта возможно только с согласия администрации сервера.
По вопросам рекламы и размещения информации обращаться сюда.


 Рейтинг@Mail.ru  Rambler's Top100